Time;durP1;ratioP1;P1;durP2;ratioP2;P2;SDS_P1;SDS_P2;PMS_P1;PMS_P2;Temp;Humidity;BMP_temperature;BMP_pressure;BME280_temperature;BME280_humidity;BME280_pressure;Samples;Min_cycle;Max_cycle;Signal;HPM_P1;HPM_P2
2022/12/20 00:02:06;;;;;;;;;10.75;8.50;;;;;13.28;60.35;101038.84;5061646;28;45240;-46
2022/12/20 00:04:31;;;;;;;;;9.50;8.50;;;;;13.29;60.28;101037.97;5061638;28;46308;-48
2022/12/20 00:06:57;;;;;;;;;10.00;7.25;;;;;13.26;60.16;101036.25;5061880;28;45185;-46
2022/12/20 00:09:24;;;;;;;;;9.50;7.50;;;;;13.30;60.18;101047.63;5061612;28;45497;-47
2022/12/20 00:11:49;;;;;;;;;8.00;7.75;;;;;13.29;60.33;101035.31;5061648;28;45236;-45
2022/12/20 00:14:14;;;;;;;;;9.00;9.00;;;;;13.26;60.15;101038.03;5060943;28;45268;-44
2022/12/20 00:16:40;;;;;;;;;9.25;8.25;;;;;13.22;60.65;101026.66;5061585;28;45249;-45
2022/12/20 00:19:06;;;;;;;;;9.00;8.25;;;;;13.22;60.56;101024.03;5061345;28;45235;-47
2022/12/20 00:21:34;;;;;;;;;8.75;7.00;;;;;13.18;60.55;101017.06;5061484;28;45321;-45
2022/12/20 00:24:00;;;;;;;;;8.00;7.00;;;;;13.19;60.55;101016.16;5076498;27;46321;-44
2022/12/20 00:26:28;;;;;;;;;10.25;8.50;;;;;13.18;60.17;101022.34;5076434;28;45331;-45
2022/12/20 00:28:54;;;;;;;;;6.75;6.75;;;;;13.18;60.35;101014.41;5060890;28;45154;-44
2022/12/20 00:31:22;;;;;;;;;7.25;7.25;;;;;13.21;60.08;101003.81;5061163;28;45204;-46
2022/12/20 00:33:49;;;;;;;;;8.00;7.50;;;;;13.16;60.52;101006.53;5060744;28;45349;-44
2022/12/20 00:36:15;;;;;;;;;7.25;5.50;;;;;13.16;60.61;101010.97;5060995;28;45416;-47
2022/12/20 00:38:44;;;;;;;;;10.00;9.00;;;;;13.21;60.05;101017.00;5059831;28;45252;-44
2022/12/20 00:41:13;;;;;;;;;8.75;8.75;;;;;13.21;60.24;101016.16;5060935;28;45335;-44
2022/12/20 00:43:40;;;;;;;;;8.00;8.00;;;;;13.17;60.38;101007.44;5060798;27;45382;-44
2022/12/20 00:46:07;;;;;;;;;8.25;8.25;;;;;13.20;60.20;101012.63;5060950;28;45352;-46
2022/12/20 00:48:34;;;;;;;;;8.00;7.00;;;;;13.19;60.49;101012.66;5060827;28;45378;-45
2022/12/20 00:51:01;;;;;;;;;11.00;9.00;;;;;13.21;60.32;101008.25;5076402;28;45449;-47
2022/12/20 00:53:27;;;;;;;;;8.50;7.75;;;;;13.20;60.05;101007.34;5060410;28;46379;-44
2022/12/20 00:55:52;;;;;;;;;7.00;7.00;;;;;13.17;60.22;101010.91;5060800;28;45322;-47
2022/12/20 00:58:18;;;;;;;;;8.50;6.75;;;;;13.13;60.28;101008.38;5060575;28;45497;-45
2022/12/20 01:00:44;;;;;;;;;10.00;9.75;;;;;13.11;60.53;101010.19;5060840;28;45302;-46
2022/12/20 01:03:09;;;;;;;;;9.75;9.75;;;;;13.16;59.97;101003.03;5060532;28;45305;-46
2022/12/20 01:05:35;;;;;;;;;9.00;7.00;;;;;13.13;60.30;101008.38;5060593;28;45395;-45
2022/12/20 01:08:00;;;;;;;;;8.50;8.00;;;;;13.14;60.42;101007.47;5060740;28;45484;-47
2022/12/20 01:10:26;;;;;;;;;9.75;7.75;;;;;13.11;60.25;101011.03;5060757;28;45284;-46
2022/12/20 01:12:52;;;;;;;;;11.50;10.00;;;;;13.15;60.18;101010.06;5060073;28;46169;-45
2022/12/20 01:15:17;;;;;;;;;11.50;11.00;;;;;13.12;60.19;100999.59;5060376;28;45259;-45
2022/12/20 01:17:43;;;;;;;;;10.00;9.00;;;;;13.08;60.47;100992.66;5060645;28;45193;-46
2022/12/20 01:20:09;;;;;;;;;9.50;7.75;;;;;13.09;60.53;101007.56;5060466;28;45464;-47
2022/12/20 01:22:34;;;;;;;;;11.25;10.50;;;;;13.05;60.60;101007.69;5060270;28;46005;-45
2022/12/20 01:25:00;;;;;;;;;8.75;8.25;;;;;13.07;60.53;101008.50;5060300;28;45308;-43
2022/12/20 01:27:25;;;;;;;;;13.00;11.00;;;;;13.10;60.45;101013.72;5060085;28;45322;-47
2022/12/20 01:29:51;;;;;;;;;14.00;10.75;;;;;13.09;60.25;101015.47;5060335;28;45451;-44
2022/12/20 01:32:16;;;;;;;;;9.25;8.00;;;;;13.08;60.47;101004.97;5060127;28;45358;-49
2022/12/20 01:34:41;;;;;;;;;9.25;8.00;;;;;13.10;60.54;100993.47;5060258;28;45319;-45
2022/12/20 01:37:07;;;;;;;;;7.00;7.00;;;;;13.13;60.30;100997.81;5060234;28;45339;-44
2022/12/20 01:39:32;;;;;;;;;9.25;9.25;;;;;13.11;60.26;100986.44;5075829;28;45430;-45
2022/12/20 01:41:58;;;;;;;;;7.25;7.25;;;;;13.10;60.59;100993.47;5075490;28;46020;-44
2022/12/20 01:44:23;;;;;;;;;8.25;7.00;;;;;13.09;60.39;100996.16;5075352;28;45338;-43
2022/12/20 01:46:50;;;;;;;;;7.25;6.75;;;;;13.10;60.26;100997.91;5060305;28;45321;-45
2022/12/20 01:49:15;;;;;;;;;5.75;5.75;;;;;13.09;60.81;100997.00;5075602;28;45596;-46
2022/12/20 01:51:49;;;;;;;;;7.00;7.00;;;;;13.08;60.66;100994.41;5059572;28;46449;-47
2022/12/20 01:54:52;;;;;;;;;7.25;6.00;;;;;13.11;60.54;100991.72;5060113;28;45332;-46
2022/12/20 01:57:26;;;;;;;;;5.25;5.25;;;;;13.14;60.58;100994.28;5041145;28;45737;-46
2022/12/20 01:59:54;;;;;;;;;7.75;4.75;;;;;13.16;60.35;100995.13;5059699;28;45415;-47
2022/12/20 02:02:20;;;;;;;;;6.50;6.50;;;;;13.16;60.34;100996.00;5058682;28;45462;-47
2022/12/20 02:04:45;;;;;;;;;6.00;6.00;;;;;13.20;60.49;100998.56;5059635;28;45244;-48
2022/12/20 02:07:17;;;;;;;;;7.00;6.00;;;;;13.17;60.52;100995.09;5060113;28;45505;-48
2022/12/20 02:09:43;;;;;;;;;6.00;6.00;;;;;13.17;60.62;100999.50;5058379;28;46186;-45
2022/12/20 02:12:15;;;;;;;;;6.25;6.25;;;;;13.17;60.57;100999.50;5074868;28;47183;-44
2022/12/20 02:15:07;;;;;;;;;8.00;6.25;;;;;13.19;60.44;100992.41;5059713;28;45326;-44
2022/12/20 02:17:38;;;;;;;;;7.25;7.00;;;;;13.21;60.52;100995.03;5059115;28;45181;-44
2022/12/20 02:20:16;;;;;;;;;6.75;6.50;;;;;13.23;60.30;100996.75;5059591;28;45528;-44
2022/12/20 02:22:56;;;;;;;;;7.50;7.00;;;;;13.23;60.74;100994.09;5056883;28;45253;-45
2022/12/20 02:25:37;;;;;;;;;7.25;6.50;;;;;13.25;60.21;100992.28;5055948;28;45663;-44
2022/12/20 02:28:40;;;;;;;;;4.50;4.50;;;;;13.26;60.18;100983.47;5073901;28;45412;-44
2022/12/20 02:31:12;;;;;;;;;3.50;3.50;;;;;13.27;59.92;100990.50;5055238;28;45331;-45
2022/12/20 02:33:41;;;;;;;;;6.25;6.00;;;;;13.28;59.97;100988.72;5058479;28;45410;-45
2022/12/20 02:36:07;;;;;;;;;6.00;5.75;;;;;13.23;60.35;100983.56;5073659;28;45363;-45
2022/12/20 02:38:35;;;;;;;;;5.00;5.00;;;;;13.24;60.35;100979.97;5058647;28;45316;-44
2022/12/20 02:41:10;;;;;;;;;6.75;5.75;;;;;13.23;60.46;100987.94;5058556;28;45181;-44
2022/12/20 02:46:26;;;;;;;;;4.25;4.25;;;;;13.18;60.62;100959.00;5058230;28;45362;-45
2022/12/20 02:48:55;;;;;;;;;6.75;5.00;;;;;13.19;60.45;100967.81;5058661;28;45316;-44
2022/12/20 02:51:22;;;;;;;;;5.00;4.00;;;;;13.17;60.64;100967.84;5057657;28;45328;-46
2022/12/20 02:53:49;;;;;;;;;5.50;4.00;;;;;13.13;60.27;100967.03;5057982;28;46276;-45
2022/12/20 02:56:32;;;;;;;;;4.00;4.00;;;;;13.15;60.22;100959.09;5057809;28;45575;-44
2022/12/20 02:59:04;;;;;;;;;5.25;4.75;;;;;13.13;60.38;100947.69;5057451;28;45390;-45
2022/12/20 03:01:34;;;;;;;;;4.00;4.00;;;;;13.08;60.52;100937.25;5060109;28;45213;-45
2022/12/20 03:04:00;;;;;;;;;5.00;3.00;;;;;13.07;60.41;100926.72;5061211;28;45374;-45
2022/12/20 03:06:26;;;;;;;;;2.75;2.00;;;;;13.07;60.44;100931.97;5062527;28;45541;-46
2022/12/20 03:08:51;;;;;;;;;5.00;4.00;;;;;13.07;60.07;100924.06;5062669;28;45228;-44
2022/12/20 03:11:17;;;;;;;;;6.00;5.25;;;;;13.05;60.31;100929.38;5062346;28;45584;-44
2022/12/20 03:13:42;;;;;;;;;4.75;4.75;;;;;13.07;60.31;100929.34;5062198;28;46131;-44
2022/12/20 03:16:09;;;;;;;;;4.00;4.00;;;;;13.05;60.26;100936.44;5062465;28;45237;-45
2022/12/20 03:18:35;;;;;;;;;6.00;4.75;;;;;13.03;59.87;100922.41;5062569;28;45310;-44
2022/12/20 03:21:00;;;;;;;;;3.50;3.50;;;;;12.98;60.07;100920.75;5062229;28;45236;-45
2022/12/20 03:23:25;;;;;;;;;4.50;3.00;;;;;12.99;59.86;100926.88;5062316;28;46194;-44
2022/12/20 03:25:51;;;;;;;;;4.00;4.00;;;;;12.95;60.35;100933.97;5061928;28;45216;-44
2022/12/20 03:28:16;;;;;;;;;6.00;4.75;;;;;12.95;60.02;100928.69;5062185;28;45446;-43
2022/12/20 03:30:41;;;;;;;;;5.50;4.00;;;;;12.93;60.03;100925.25;5062137;28;45421;-45
2022/12/20 03:33:07;;;;;;;;;4.00;4.00;;;;;12.93;60.05;100927.00;5062722;27;46056;-44
2022/12/20 03:35:32;;;;;;;;;5.25;2.50;;;;;12.89;60.30;100933.25;5062033;28;45461;-45
2022/12/20 03:37:58;;;;;;;;;5.00;4.00;;;;;12.87;60.41;100927.13;5062227;28;45438;-44
2022/12/20 03:40:23;;;;;;;;;3.00;3.00;;;;;12.82;60.36;100929.88;5061996;28;45547;-45
2022/12/20 03:42:49;;;;;;;;;4.50;3.50;;;;;12.80;60.23;100931.66;5077215;28;48008;-45
2022/12/20 03:45:14;;;;;;;;;4.00;3.00;;;;;12.83;59.99;100935.13;5061915;28;45303;-43
2022/12/20 03:47:40;;;;;;;;;2.50;2.50;;;;;12.82;59.98;100929.88;5062089;28;46038;-45
2022/12/20 03:50:06;;;;;;;;;4.00;4.00;;;;;12.80;59.94;100934.31;5077435;28;45506;-45
2022/12/20 03:52:31;;;;;;;;;7.00;3.75;;;;;12.79;59.93;100935.19;5061611;28;45289;-45
2022/12/20 03:54:57;;;;;;;;;4.75;4.00;;;;;12.77;60.08;100926.47;5061508;28;45478;-45
2022/12/20 03:57:22;;;;;;;;;5.00;3.75;;;;;12.76;60.26;100925.59;5061818;28;45363;-45
2022/12/20 03:59:47;;;;;;;;;4.00;2.50;;;;;12.76;60.16;100925.59;5061677;28;45477;-45
2022/12/20 04:02:13;;;;;;;;;4.75;4.75;;;;;12.76;60.20;100917.69;5061657;28;45306;-44
2022/12/20 04:04:38;;;;;;;;;4.75;3.00;;;;;12.77;60.45;100914.16;5077108;28;45261;-44
2022/12/20 04:07:04;;;;;;;;;5.25;3.75;;;;;12.79;60.33;100914.09;5061819;28;45272;-44
2022/12/20 04:09:29;;;;;;;;;5.75;3.00;;;;;12.79;60.01;100917.63;5061483;28;45466;-46
2022/12/20 04:11:54;;;;;;;;;3.00;3.00;;;;;12.79;60.29;100916.75;5061163;28;46223;-48
2022/12/20 04:14:20;;;;;;;;;1.75;1.75;;;;;12.80;60.48;100916.72;5061235;28;46164;-44
2022/12/20 04:16:45;;;;;;;;;3.75;3.25;;;;;12.77;60.24;100913.28;5061750;28;45291;-44
2022/12/20 04:19:10;;;;;;;;;3.50;3.50;;;;;12.76;60.26;100895.72;5061361;28;45542;-44
2022/12/20 04:21:36;;;;;;;;;4.75;3.00;;;;;12.78;59.85;100894.78;5061293;28;46234;-45
2022/12/20 04:24:03;;;;;;;;;4.75;4.25;;;;;12.79;60.06;100898.28;5076832;28;45369;-45
2022/12/20 04:26:29;;;;;;;;;4.50;4.00;;;;;12.81;60.13;100886.81;5061385;28;45407;-44
2022/12/20 04:28:55;;;;;;;;;4.75;4.75;;;;;12.79;59.94;100886.00;5060823;28;45399;-45
2022/12/20 04:31:20;;;;;;;;;3.50;3.50;;;;;12.81;59.93;100880.66;5061139;28;45382;-45
2022/12/20 04:33:47;;;;;;;;;3.75;3.00;;;;;12.81;59.99;100878.03;5061084;28;45389;-44
2022/12/20 04:36:13;;;;;;;;;5.75;4.00;;;;;12.81;59.93;100876.25;5061311;28;45303;-45
2022/12/20 04:38:38;;;;;;;;;3.75;3.00;;;;;12.81;59.99;100872.75;5060961;28;45469;-45
2022/12/20 04:41:04;;;;;;;;;3.00;3.00;;;;;12.80;60.32;100873.66;5060949;28;45178;-46
2022/12/20 04:43:29;;;;;;;;;3.00;3.00;;;;;12.80;60.12;100871.91;5070920;28;45170;-45
2022/12/20 04:45:55;;;;;;;;;2.50;2.00;;;;;12.83;60.26;100884.16;5061369;28;45231;-44
2022/12/20 04:48:21;;;;;;;;;3.50;3.00;;;;;12.84;60.06;100880.59;5076570;28;45481;-46
2022/12/20 04:50:47;;;;;;;;;4.50;4.50;;;;;12.83;59.92;100886.78;5060756;28;45372;-44
2022/12/20 04:55:57;;;;;;;;;3.75;3.75;;;;;12.80;60.03;100878.94;5060692;28;45379;-44
2022/12/20 04:58:22;;;;;;;;;2.00;2.00;;;;;12.81;59.97;100885.94;5059256;28;45673;-43
2022/12/20 05:00:48;;;;;;;;;3.25;3.25;;;;;12.82;60.11;100887.69;5060689;28;46132;-45
2022/12/20 05:03:13;;;;;;;;;3.00;3.00;;;;;12.83;60.28;100884.16;5060757;28;45405;-45
2022/12/20 05:05:38;;;;;;;;;3.75;3.00;;;;;12.79;60.42;100883.34;5060778;28;45304;-45
2022/12/20 05:08:04;;;;;;;;;4.00;4.00;;;;;12.82;60.01;100882.41;5060622;28;45245;-45
2022/12/20 05:10:29;;;;;;;;;3.00;3.00;;;;;12.88;60.12;100886.66;5060678;28;46113;-46
2022/12/20 05:12:55;;;;;;;;;5.75;2.75;;;;;12.90;59.77;100871.69;5060206;28;45225;-46
2022/12/20 05:15:20;;;;;;;;;5.00;3.50;;;;;12.88;59.93;100871.72;5060800;28;45321;-44
2022/12/20 05:17:45;;;;;;;;;5.00;2.75;;;;;12.91;60.25;100874.28;5060456;28;45248;-46
2022/12/20 05:20:11;;;;;;;;;1.25;0.75;;;;;12.92;59.77;100873.41;5060595;28;45407;-46
2022/12/20 05:28:05;;;;;;;;;2.50;2.00;;;;;12.91;60.09;100857.63;5059963;28;45350;-45
2022/12/20 05:30:31;;;;;;;;;6.00;3.00;;;;;12.88;60.38;100850.63;5060024;28;45248;-46
2022/12/20 05:32:56;;;;;;;;;5.50;3.75;;;;;12.91;60.07;100842.63;5060509;28;45419;-46
2022/12/20 05:35:21;;;;;;;;;3.00;1.25;;;;;12.93;60.23;100847.88;5060183;28;45261;-45
2022/12/20 05:37:46;;;;;;;;;2.00;2.00;;;;;12.94;60.28;100836.44;5060282;28;45266;-45
2022/12/20 05:40:12;;;;;;;;;6.25;5.25;;;;;12.95;60.22;100841.66;5075796;28;45267;-48
2022/12/20 05:42:37;;;;;;;;;3.25;3.25;;;;;12.96;59.95;100859.22;5059718;28;45223;-43
2022/12/20 05:45:04;;;;;;;;;4.00;4.00;;;;;12.97;60.25;100854.84;5060283;28;45262;-48
2022/12/20 05:47:32;;;;;;;;;3.00;3.00;;;;;12.98;60.39;100852.16;5060191;28;45477;-46
2022/12/20 05:50:02;;;;;;;;;3.75;3.00;;;;;12.95;59.92;100851.34;5059864;28;46127;-44
2022/12/20 05:52:27;;;;;;;;;4.00;4.00;;;;;12.96;60.04;100846.03;5059919;28;45220;-45
2022/12/20 05:54:53;;;;;;;;;2.00;2.00;;;;;12.97;60.21;100844.28;5057502;28;45260;-45
2022/12/20 05:57:18;;;;;;;;;4.00;3.00;;;;;12.98;60.01;100846.88;5058313;28;45457;-48
2022/12/20 05:59:43;;;;;;;;;2.50;2.50;;;;;13.00;59.99;100853.00;5057954;28;45329;-47
2022/12/20 06:02:09;;;;;;;;;4.00;3.25;;;;;13.03;59.99;100851.19;5058720;28;45235;-49
2022/12/20 06:04:35;;;;;;;;;4.00;3.50;;;;;13.02;60.15;100847.69;5059077;28;45656;-45
2022/12/20 06:07:01;;;;;;;;;3.00;3.00;;;;;12.98;60.30;100844.25;5058856;28;45248;-44
2022/12/20 06:09:26;;;;;;;;;2.75;2.75;;;;;13.04;59.67;100845.84;5058922;28;45517;-46
2022/12/20 06:11:52;;;;;;;;;2.50;2.50;;;;;13.05;60.20;100862.56;5058563;28;45420;-45
2022/12/20 06:14:17;;;;;;;;;2.00;2.00;;;;;13.03;59.75;100861.72;5057633;28;45441;-45
2022/12/20 06:16:42;;;;;;;;;4.75;3.00;;;;;13.04;59.94;100863.47;5058992;28;45522;-47
2022/12/20 06:19:08;;;;;;;;;3.50;3.00;;;;;13.07;60.18;100866.03;5058685;28;45459;-44
2022/12/20 06:21:33;;;;;;;;;2.50;2.00;;;;;13.08;59.70;100867.78;5058986;28;45420;-45
2022/12/20 06:24:00;;;;;;;;;4.50;4.00;;;;;13.08;60.12;100870.41;5057309;28;45312;-47
2022/12/20 06:26:25;;;;;;;;;3.00;2.75;;;;;13.06;60.03;100859.03;5057681;28;45570;-45
2022/12/20 06:28:53;;;;;;;;;4.00;4.00;;;;;13.00;60.00;100847.72;5058429;27;45490;-45
2022/12/20 06:31:18;;;;;;;;;2.50;2.50;;;;;13.08;60.21;100862.50;5058453;27;45435;-48
2022/12/20 06:33:44;;;;;;;;;3.00;2.75;;;;;13.06;60.16;100867.81;5055918;28;45233;-44
2022/12/20 06:36:09;;;;;;;;;3.25;3.00;;;;;13.05;59.74;100857.31;5058940;28;45465;-46
2022/12/20 06:38:36;;;;;;;;;3.00;3.00;;;;;13.05;60.15;100862.56;5061922;28;45353;-46
2022/12/20 06:41:02;;;;;;;;;7.50;5.00;;;;;13.09;60.23;100865.09;5062206;28;45599;-46
2022/12/20 06:43:27;;;;;;;;;2.00;2.00;;;;;13.10;59.94;100847.50;5061923;28;45407;-46
2022/12/20 06:45:53;;;;;;;;;4.00;3.00;;;;;13.09;59.91;100858.97;5061956;28;45406;-47
2022/12/20 06:48:20;;;;;;;;;3.00;3.00;;;;;13.12;60.39;100858.91;5061918;28;45391;-44
2022/12/20 06:50:47;;;;;;;;;7.00;4.00;;;;;13.11;60.04;100846.59;5060687;28;45449;-46
2022/12/20 06:53:12;;;;;;;;;6.00;4.25;;;;;13.12;59.95;100848.34;5061770;28;45481;-49
2022/12/20 06:55:38;;;;;;;;;2.50;2.50;;;;;13.08;60.35;100838.75;5062106;27;45532;-48
2022/12/20 06:58:03;;;;;;;;;2.25;2.25;;;;;13.11;60.23;100846.59;5061642;28;45220;-48
2022/12/20 07:00:28;;;;;;;;;5.00;3.00;;;;;13.09;60.01;100843.13;5061979;28;45256;-46
2022/12/20 07:02:54;;;;;;;;;4.00;3.00;;;;;13.10;60.22;100856.28;5060482;28;45471;-46
2022/12/20 07:05:19;;;;;;;;;4.00;3.00;;;;;13.11;60.05;100841.34;5061840;27;45644;-45
2022/12/20 07:07:44;;;;;;;;;2.00;2.00;;;;;13.12;60.17;100851.00;5061388;28;46738;-46
2022/12/20 07:10:10;;;;;;;;;3.75;3.00;;;;;13.15;59.85;100856.19;5061858;28;45231;-49
2022/12/20 07:12:35;;;;;;;;;3.25;3.25;;;;;13.12;60.21;100843.94;5061304;28;45219;-45
2022/12/20 07:15:00;;;;;;;;;5.00;4.00;;;;;13.16;60.06;100847.38;5061890;28;45247;-44
2022/12/20 07:17:26;;;;;;;;;3.75;2.50;;;;;13.07;60.02;100856.38;5061424;28;45198;-44
2022/12/20 07:19:51;;;;;;;;;4.00;4.00;;;;;13.10;60.19;100856.28;5062011;27;45197;-44
2022/12/20 07:22:16;;;;;;;;;5.50;4.25;;;;;13.09;60.24;100851.03;5061797;28;45407;-44
2022/12/20 07:24:42;;;;;;;;;4.75;3.00;;;;;13.08;60.31;100849.31;5061234;28;45349;-44
2022/12/20 07:27:09;;;;;;;;;5.75;5.00;;;;;13.09;59.93;100851.91;5060993;28;45561;-45
2022/12/20 07:29:35;;;;;;;;;4.50;4.50;;;;;13.08;59.98;100849.31;5076879;28;45344;-48
2022/12/20 07:32:01;;;;;;;;;3.00;3.00;;;;;13.08;60.15;100844.91;5061426;28;46530;-44
2022/12/20 07:34:27;;;;;;;;;4.50;3.00;;;;;13.06;60.21;100840.56;5061474;28;45254;-44
2022/12/20 07:36:52;;;;;;;;;8.00;5.00;;;;;13.10;60.19;100836.97;5060790;28;46030;-44
2022/12/20 07:39:18;;;;;;;;;6.00;5.25;;;;;13.09;60.18;100849.25;5061349;28;45236;-46
2022/12/20 07:41:43;;;;;;;;;3.75;3.75;;;;;13.08;59.80;100855.47;5060960;28;45307;-46
2022/12/20 07:44:09;;;;;;;;;5.25;5.00;;;;;13.06;60.19;100844.06;5061167;28;45407;-45
2022/12/20 07:46:34;;;;;;;;;6.50;4.00;;;;;13.08;59.80;100850.19;5060642;28;46083;-45
2022/12/20 07:48:59;;;;;;;;;6.50;5.75;;;;;13.09;59.80;100858.97;5061025;28;45160;-46
2022/12/20 07:51:28;;;;;;;;;6.00;5.25;;;;;13.14;59.66;100849.16;5061044;28;45241;-44
2022/12/20 07:54:02;;;;;;;;;3.25;3.25;;;;;13.13;60.08;100856.22;5059951;28;45538;-44
2022/12/20 07:56:30;;;;;;;;;5.50;5.50;;;;;13.13;59.73;100860.63;5060719;28;47040;-44
2022/12/20 07:58:59;;;;;;;;;5.00;5.00;;;;;13.14;59.83;100857.09;5060661;28;45320;-46
2022/12/20 08:01:27;;;;;;;;;4.00;4.00;;;;;13.18;60.13;100850.81;5060895;28;45302;-44
2022/12/20 08:03:59;;;;;;;;;4.75;4.00;;;;;13.16;59.87;100850.00;5060498;28;45593;-45
2022/12/20 08:06:24;;;;;;;;;2.75;2.75;;;;;13.17;59.73;100857.03;5060749;28;46216;-47
2022/12/20 08:08:55;;;;;;;;;6.50;4.50;;;;;13.13;60.00;100856.22;5059940;28;45270;-44
2022/12/20 08:11:21;;;;;;;;;4.00;4.00;;;;;13.19;59.81;100854.34;5060848;28;45429;-48
2022/12/20 08:13:50;;;;;;;;;4.25;4.25;;;;;13.20;59.99;100858.72;5060142;28;45498;-44
2022/12/20 08:16:15;;;;;;;;;5.25;5.00;;;;;13.17;59.46;100841.19;5060372;28;46267;-47
2022/12/20 08:18:41;;;;;;;;;5.00;5.00;;;;;13.20;59.60;100842.91;5058976;28;45649;-44
2022/12/20 08:21:07;;;;;;;;;5.00;3.25;;;;;13.20;59.82;100841.09;5060728;28;45212;-46
2022/12/20 08:23:32;;;;;;;;;7.00;4.00;;;;;13.22;59.53;100849.88;5058943;28;45641;-46
2022/12/20 08:26:01;;;;;;;;;4.75;4.75;;;;;13.25;60.04;100855.06;5060075;28;46190;-45
2022/12/20 08:28:27;;;;;;;;;6.00;6.00;;;;;13.23;59.88;100856.88;5060529;28;45172;-46
2022/12/20 08:30:52;;;;;;;;;7.25;5.25;;;;;13.23;60.03;100843.69;5058981;28;45331;-44
2022/12/20 08:33:18;;;;;;;;;8.00;8.00;;;;;13.25;59.51;100843.66;5060541;28;45243;-47
2022/12/20 08:35:43;;;;;;;;;8.50;6.50;;;;;13.21;59.66;100842.84;5074096;28;46971;-46
2022/12/20 08:38:09;;;;;;;;;6.00;5.25;;;;;13.25;59.37;100848.94;5059049;28;45383;-46
2022/12/20 08:40:34;;;;;;;;;6.00;6.00;;;;;13.26;60.03;100840.97;5058491;28;45559;-47
2022/12/20 08:43:00;;;;;;;;;5.00;5.00;;;;;13.24;60.06;100840.13;5059414;28;45594;-45
2022/12/20 08:45:25;;;;;;;;;5.00;5.00;;;;;13.26;59.29;100846.25;5058322;28;46928;-45
2022/12/20 08:47:52;;;;;;;;;4.75;4.75;;;;;13.29;59.64;100843.50;5076617;28;45766;-45
2022/12/20 08:50:18;;;;;;;;;8.25;6.25;;;;;13.30;59.38;100858.44;5060844;28;45402;-44
2022/12/20 08:52:43;;;;;;;;;5.25;5.25;;;;;13.30;59.44;100850.53;5060474;28;45339;-46
2022/12/20 08:55:09;;;;;;;;;8.00;6.25;;;;;13.30;59.04;100849.69;5060662;28;45427;-46
2022/12/20 08:57:34;;;;;;;;;5.25;5.25;;;;;13.32;59.06;100861.94;5076013;28;45481;-45
2022/12/20 08:59:59;;;;;;;;;6.25;5.00;;;;;13.31;59.09;100865.47;5059890;28;45344;-44
2022/12/20 09:02:25;;;;;;;;;6.00;4.00;;;;;13.30;59.47;100853.19;5076449;28;45572;-44
2022/12/20 09:04:51;;;;;;;;;5.00;4.75;;;;;13.33;59.32;100854.88;5060521;28;45353;-44
2022/12/20 09:07:16;;;;;;;;;4.75;4.25;;;;;13.34;59.43;100861.88;5076323;27;45334;-47
2022/12/20 09:09:41;;;;;;;;;7.00;6.00;;;;;13.35;59.60;100861.00;5076278;28;45300;-45
2022/12/20 09:12:06;;;;;;;;;5.50;4.75;;;;;13.31;59.98;100869.91;5060426;28;45227;-45
2022/12/20 09:14:32;;;;;;;;;9.00;6.50;;;;;13.30;59.75;100878.72;5075998;28;46029;-45
2022/12/20 09:16:57;;;;;;;;;7.75;6.75;;;;;13.33;59.78;100879.50;5060655;28;45310;-45
2022/12/20 09:19:23;;;;;;;;;6.00;5.25;;;;;13.35;59.62;100884.75;5060471;28;45510;-44
2022/12/20 09:21:48;;;;;;;;;6.25;6.25;;;;;13.29;59.85;100882.25;5059352;28;45198;-45
2022/12/20 09:24:13;;;;;;;;;5.25;4.25;;;;;13.32;59.88;100875.13;5057769;28;46005;-43
2022/12/20 09:26:39;;;;;;;;;5.50;5.00;;;;;13.31;59.83;100873.38;5051839;28;45293;-45
2022/12/20 09:29:05;;;;;;;;;5.75;4.25;;;;;13.28;59.58;100889.31;5060447;28;45321;-45
2022/12/20 09:31:30;;;;;;;;;6.00;4.00;;;;;13.28;60.04;100868.19;5060225;28;45639;-48
2022/12/20 09:33:57;;;;;;;;;5.00;4.00;;;;;13.24;60.38;100879.72;5060077;28;46421;-43
2022/12/20 09:36:24;;;;;;;;;3.75;3.75;;;;;13.15;60.31;100870.22;5060241;28;45398;-44
2022/12/20 09:38:50;;;;;;;;;5.75;5.75;;;;;13.16;60.43;100879.88;5075859;28;45442;-47
2022/12/20 09:41:38;;;;;;;;;6.00;4.00;;;;;13.12;60.51;100858.91;5075554;28;45532;-50
2022/12/20 09:44:26;;;;;;;;;7.00;7.00;;;;;13.07;60.71;100876.59;5060117;28;45235;-48
2022/12/20 09:47:00;;;;;;;;;7.00;6.00;;;;;12.93;60.87;100875.13;5037688;28;45386;-45
2022/12/20 09:49:30;;;;;;;;;7.25;6.00;;;;;12.91;60.83;100879.56;5058992;28;45276;-46
2022/12/20 09:52:22;;;;;;;;;5.75;5.75;;;;;12.82;61.02;100866.59;5059717;28;45305;-45
2022/12/20 09:55:04;;;;;;;;;8.00;7.00;;;;;12.75;61.00;100876.38;5059762;28;45334;-44
2022/12/20 09:57:54;;;;;;;;;5.00;5.00;;;;;12.70;61.30;100861.56;5059607;28;45277;-45
2022/12/20 10:00:20;;;;;;;;;7.00;7.00;;;;;12.63;61.54;100866.13;5075333;28;45481;-44
2022/12/20 10:02:47;;;;;;;;;7.75;7.75;;;;;12.62;61.49;100857.31;5059737;28;45377;-44
2022/12/20 10:05:44;;;;;;;;;6.75;6.50;;;;;12.63;61.36;100860.84;5059821;28;45976;-46
2022/12/20 10:08:42;;;;;;;;;8.25;7.25;;;;;12.59;61.48;100852.13;5059655;28;45188;-43
2022/12/20 10:11:21;;;;;;;;;7.75;6.25;;;;;12.57;61.95;100846.00;5061605;28;45351;-44
2022/12/20 10:13:59;;;;;;;;;6.25;4.25;;;;;12.52;61.84;100854.00;5063148;28;45326;-45
2022/12/20 10:16:39;;;;;;;;;7.25;7.25;;;;;12.52;61.87;100847.88;5063327;28;46489;-44
2022/12/20 10:19:33;;;;;;;;;9.50;8.00;;;;;12.47;61.98;100853.22;5063007;28;45236;-44
2022/12/20 10:22:16;;;;;;;;;6.50;6.00;;;;;12.49;62.33;100848.81;5063242;28;45390;-44
2022/12/20 10:24:46;;;;;;;;;7.00;7.00;;;;;12.48;62.28;100862.03;5056901;28;45420;-44
2022/12/20 10:27:19;;;;;;;;;6.50;6.25;;;;;12.47;62.05;100849.75;5059061;28;45263;-45
2022/12/20 10:29:48;;;;;;;;;6.50;6.50;;;;;12.47;62.10;100849.75;5063121;28;45332;-46
2022/12/20 10:32:17;;;;;;;;;5.75;5.75;;;;;12.48;62.28;100852.34;5078574;27;45202;-47
2022/12/20 10:35:10;;;;;;;;;11.25;6.75;;;;;12.52;62.23;100837.31;5063038;28;45407;-47
2022/12/20 10:37:37;;;;;;;;;10.50;7.00;;;;;12.51;62.22;100838.22;5063058;28;45259;-49
2022/12/20 10:40:03;;;;;;;;;8.00;7.00;;;;;12.53;62.64;100831.16;5063312;27;45438;-46
2022/12/20 10:42:28;;;;;;;;;8.25;6.25;;;;;12.55;61.78;100831.97;5062698;28;45296;-44
2022/12/20 10:44:55;;;;;;;;;7.25;6.75;;;;;12.59;62.35;100838.06;5062690;28;45482;-46
2022/12/20 10:47:43;;;;;;;;;7.00;7.00;;;;;12.62;62.56;100841.50;5062905;28;45260;-44
2022/12/20 10:50:20;;;;;;;;;8.00;7.50;;;;;12.62;62.52;100838.88;5062432;28;45356;-44
2022/12/20 10:53:03;;;;;;;;;7.25;6.50;;;;;12.55;62.47;100834.63;5062788;28;45355;-45
2022/12/20 10:55:38;;;;;;;;;7.50;7.50;;;;;12.57;62.73;100840.72;5062650;27;45378;-45
2022/12/20 10:58:12;;;;;;;;;9.00;7.00;;;;;12.56;62.84;100833.72;5077663;28;46578;-46
2022/12/20 11:00:38;;;;;;;;;9.50;9.50;;;;;12.48;63.12;100833.88;5062597;28;45314;-46
2022/12/20 11:03:14;;;;;;;;;11.50;8.00;;;;;12.48;62.84;100825.13;5062640;28;45273;-45
2022/12/20 11:05:51;;;;;;;;;8.00;8.00;;;;;12.45;62.97;100836.59;5062566;28;45544;-48
2022/12/20 11:08:17;;;;;;;;;8.00;7.75;;;;;12.50;62.91;100826.81;5062376;28;46120;-44
2022/12/20 11:10:43;;;;;;;;;9.00;8.75;;;;;12.45;62.91;100827.81;5062273;28;45457;-44
2022/12/20 11:13:24;;;;;;;;;16.75;12.50;;;;;12.43;62.78;100827.84;5062095;28;45367;-47
2022/12/20 11:15:55;;;;;;;;;16.75;14.50;;;;;12.43;62.87;100821.72;5060986;28;45468;-44
2022/12/20 11:18:36;;;;;;;;;16.50;16.00;;;;;12.41;63.09;100816.44;5062268;28;46227;-46
2022/12/20 11:21:04;;;;;;;;;16.75;15.75;;;;;12.40;62.97;100816.50;5062221;28;45232;-46
2022/12/20 11:23:47;;;;;;;;;12.00;11.00;;;;;12.38;63.21;100816.53;5061595;28;45338;-43
2022/12/20 11:26:30;;;;;;;;;10.00;9.25;;;;;12.36;63.18;100810.41;5056617;28;45636;-46
2022/12/20 11:29:17;;;;;;;;;7.25;7.00;;;;;12.34;63.05;100807.81;5056773;28;46001;-46
2022/12/20 11:31:48;;;;;;;;;8.75;8.00;;;;;12.32;63.37;100814.88;5061488;28;45381;-46
2022/12/20 11:34:19;;;;;;;;;8.25;8.25;;;;;12.28;63.46;100812.34;5059661;28;45380;-47
2022/12/20 11:37:07;;;;;;;;;7.50;7.50;;;;;12.28;63.14;100807.94;5061357;28;45369;-46
2022/12/20 11:39:45;;;;;;;;;6.75;6.00;;;;;12.30;63.30;100803.50;5060823;28;45441;-45
2022/12/20 11:42:34;;;;;;;;;6.00;6.00;;;;;12.28;63.20;100788.63;5060374;28;45409;-45